Terminal Aerodrome Forecast
Issued by NWS

Current Version | Previous Version | Text Only | Print | Product List | Glossary Off
Versions: 1 2 3 4 5 6 7 8 9 10 11 12 13 14 15 16 17 18 19 20 21 22 23 24 25 26 27 28 29 30 31 32 33 34 35 36 37 38 39 40 41 42 43

000
FTUS41 KRNK 091324 AAB
TAFLWB
TAF AMD
KLWB 091324Z 0913/1012 21005KT P6SM BKN020 BKN080
     FM091600 24005KT P6SM VCTS OVC025CB
     FM092300 27003KT P6SM SCT035 BKN100
     FM100600 00000KT 3SM BR SCT001 SCT080
     FM100900 00000KT 1/2SM FG BKN001=

USA.gov is the U.S. government's official web portal to all federal, state and local government web resources and services.